sensor_id;sensor_type;location;lat;lon;timestamp;noise_LAeq;noise_LA_min;noise_LA_max;noise_LA01;noise_LA95
73342;Laerm;61578;52.002;5.468;2024-03-23T00:53:52;40.81;38.56;43.05;;
73342;Laerm;61578;52.002;5.468;2024-03-23T00:54:23;40.91;38.10;43.61;;
73342;Laerm;61578;52.002;5.468;2024-03-23T00:54:54;40.76;38.69;43.79;;
73342;Laerm;61578;52.002;5.468;2024-03-23T00:55:25;41.00;39.21;43.47;;
73342;Laerm;61578;52.002;5.468;2024-03-23T00:55:56;41.12;39.38;43.45;;
73342;Laerm;61578;52.002;5.468;2024-03-23T00:56:27;41.07;38.49;43.48;;
73342;Laerm;61578;52.002;5.468;2024-03-23T00:56:57;41.09;39.25;43.86;;
73342;Laerm;61578;52.002;5.468;2024-03-23T00:57:28;41.05;38.99;43.12;;
73342;Laerm;61578;52.002;5.468;2024-03-23T00:57:59;40.97;39.11;43.18;;
73342;Laerm;61578;52.002;5.468;2024-03-23T00:58:30;40.90;38.94;43.19;;
73342;Laerm;61578;52.002;5.468;2024-03-23T00:59:01;41.05;39.14;44.63;;
73342;Laerm;61578;52.002;5.468;2024-03-23T00:59:31;41.22;39.34;43.63;;
73342;Laerm;61578;52.002;5.468;2024-03-23T01:00:03;40.99;39.26;44.14;;
73342;Laerm;61578;52.002;5.468;2024-03-23T01:00:36;41.24;38.91;43.69;;
73342;Laerm;61578;52.002;5.468;2024-03-23T01:01:07;41.00;39.27;43.49;;
73342;Laerm;61578;52.002;5.468;2024-03-23T01:01:37;41.13;39.48;44.15;;
73342;Laerm;61578;52.002;5.468;2024-03-23T01:02:08;41.18;39.22;43.43;;
73342;Laerm;61578;52.002;5.468;2024-03-23T01:02:39;41.01;39.17;43.75;;
73342;Laerm;61578;52.002;5.468;2024-03-23T01:03:09;41.17;39.02;43.86;;
73342;Laerm;61578;52.002;5.468;2024-03-23T01:03:40;41.09;39.18;43.61;;
73342;Laerm;61578;52.002;5.468;2024-03-23T01:04:11;41.09;39.42;43.79;;
73342;Laerm;61578;52.002;5.468;2024-03-23T01:04:41;41.22;39.28;43.72;;
73342;Laerm;61578;52.002;5.468;2024-03-23T01:05:12;41.07;38.84;43.53;;
73342;Laerm;61578;52.002;5.468;2024-03-23T01:05:43;41.35;39.11;44.41;;
73342;Laerm;61578;52.002;5.468;2024-03-23T01:06:13;41.20;38.80;43.85;;
73342;Laerm;61578;52.002;5.468;2024-03-23T01:06:44;40.98;38.33;43.41;;
73342;Laerm;61578;52.002;5.468;2024-03-23T01:07:15;40.95;38.71;43.58;;
73342;Laerm;61578;52.002;5.468;2024-03-23T01:07:46;40.88;38.86;43.85;;
73342;Laerm;61578;52.002;5.468;2024-03-23T01:08:16;41.08;39.01;43.69;;
73342;Laerm;61578;52.002;5.468;2024-03-23T01:08:47;41.11;38.51;43.60;;
73342;Laerm;61578;52.002;5.468;2024-03-23T01:09:18;40.97;38.74;44.05;;
73342;Laerm;61578;52.002;5.468;2024-03-23T01:09:49;41.01;39.00;43.62;;
73342;Laerm;61578;52.002;5.468;2024-03-23T01:10:22;40.98;38.74;43.54;;
73342;Laerm;61578;52.002;5.468;2024-03-23T01:10:59;40.80;38.66;43.52;;
73342;Laerm;61578;52.002;5.468;2024-03-23T01:11:30;40.91;38.81;43.90;;
73342;Laerm;61578;52.002;5.468;2024-03-23T01:12:03;40.90;38.59;43.84;;
73342;Laerm;61578;52.002;5.468;2024-03-23T01:12:35;40.96;38.80;43.74;;
73342;Laerm;61578;52.002;5.468;2024-03-23T01:13:05;40.82;38.74;44.10;;
73342;Laerm;61578;52.002;5.468;2024-03-23T01:13:36;40.98;38.44;43.77;;
73342;Laerm;61578;52.002;5.468;2024-03-23T01:14:07;40.97;38.96;44.59;;
73342;Laerm;61578;52.002;5.468;2024-03-23T01:14:38;41.03;38.99;44.12;;
73342;Laerm;61578;52.002;5.468;2024-03-23T01:15:09;41.03;38.85;44.71;;
73342;Laerm;61578;52.002;5.468;2024-03-23T01:15:39;40.87;38.66;43.60;;
73342;Laerm;61578;52.002;5.468;2024-03-23T01:16:10;40.72;38.48;43.57;;
73342;Laerm;61578;52.002;5.468;2024-03-23T01:16:41;40.86;38.82;43.23;;
73342;Laerm;61578;52.002;5.468;2024-03-23T01:17:11;40.83;38.64;43.51;;
73342;Laerm;61578;52.002;5.468;2024-03-23T01:17:42;41.07;38.91;43.21;;
73342;Laerm;61578;52.002;5.468;2024-03-23T01:18:13;41.05;38.72;43.70;;
73342;Laerm;61578;52.002;5.468;2024-03-23T01:18:43;40.97;39.13;44.18;;
73342;Laerm;61578;52.002;5.468;2024-03-23T01:19:14;40.96;38.78;43.13;;
73342;Laerm;61578;52.002;5.468;2024-03-23T01:19:45;41.01;38.63;43.68;;
73342;Laerm;61578;52.002;5.468;2024-03-23T01:20:16;40.79;38.84;42.98;;
73342;Laerm;61578;52.002;5.468;2024-03-23T01:20:47;41.12;38.91;46.61;;
73342;Laerm;61578;52.002;5.468;2024-03-23T01:21:18;40.88;38.51;43.31;;
73342;Laerm;61578;52.002;5.468;2024-03-23T01:21:49;40.87;38.48;43.58;;
73342;Laerm;61578;52.002;5.468;2024-03-23T01:22:19;41.00;38.74;43.65;;
73342;Laerm;61578;52.002;5.468;2024-03-23T01:22:50;41.29;38.91;44.76;;
73342;Laerm;61578;52.002;5.468;2024-03-23T01:23:21;41.29;38.49;43.97;;
73342;Laerm;61578;52.002;5.468;2024-03-23T01:23:51;41.02;38.69;44.03;;
73342;Laerm;61578;52.002;5.468;2024-03-23T01:24:22;40.82;38.73;43.46;;
73342;Laerm;61578;52.002;5.468;2024-03-23T01:24:53;40.83;38.59;43.56;;
73342;Laerm;61578;52.002;5.468;2024-03-23T01:25:24;40.79;38.57;43.18;;
73342;Laerm;61578;52.002;5.468;2024-03-23T01:25:54;41.01;38.69;43.81;;
73342;Laerm;61578;52.002;5.468;2024-03-23T01:26:25;41.09;38.87;43.88;;
73342;Laerm;61578;52.002;5.468;2024-03-23T01:26:56;40.89;38.75;44.25;;
73342;Laerm;61578;52.002;5.468;2024-03-23T01:27:27;40.81;38.84;43.44;;
73342;Laerm;61578;52.002;5.468;2024-03-23T01:27:58;41.09;38.91;51.81;;
73342;Laerm;61578;52.002;5.468;2024-03-23T01:28:28;40.82;38.70;43.35;;
73342;Laerm;61578;52.002;5.468;2024-03-23T01:28:59;40.93;38.66;43.47;;
73342;Laerm;61578;52.002;5.468;2024-03-23T01:29:30;40.90;38.83;43.16;;
73342;Laerm;61578;52.002;5.468;2024-03-23T01:30:01;41.01;38.80;44.21;;
73342;Laerm;61578;52.002;5.468;2024-03-23T01:30:32;40.89;38.34;43.49;;
73342;Laerm;61578;52.002;5.468;2024-03-23T01:31:03;40.95;38.76;43.55;;
73342;Laerm;61578;52.002;5.468;2024-03-23T01:31:34;40.86;38.79;43.65;;
73342;Laerm;61578;52.002;5.468;2024-03-23T01:32:05;40.79;38.17;43.30;;
73342;Laerm;61578;52.002;5.468;2024-03-23T01:32:37;40.90;38.77;44.08;;
73342;Laerm;61578;52.002;5.468;2024-03-23T01:33:07;41.33;38.78;47.44;;
73342;Laerm;61578;52.002;5.468;2024-03-23T01:33:38;40.82;38.25;43.66;;
73342;Laerm;61578;52.002;5.468;2024-03-23T01:34:09;40.83;38.83;43.66;;
73342;Laerm;61578;52.002;5.468;2024-03-23T01:34:39;40.80;38.47;43.47;;
73342;Laerm;61578;52.002;5.468;2024-03-23T01:35:10;40.64;38.61;43.04;;
73342;Laerm;61578;52.002;5.468;2024-03-23T01:35:41;40.69;38.63;43.30;;
73342;Laerm;61578;52.002;5.468;2024-03-23T01:36:11;40.91;38.54;43.75;;
73342;Laerm;61578;52.002;5.468;2024-03-23T01:36:42;40.90;38.69;43.70;;
73342;Laerm;61578;52.002;5.468;2024-03-23T01:37:13;41.00;38.94;43.54;;
73342;Laerm;61578;52.002;5.468;2024-03-23T01:37:43;40.94;38.98;43.54;;
73342;Laerm;61578;52.002;5.468;2024-03-23T01:38:15;40.92;38.54;44.05;;
73342;Laerm;61578;52.002;5.468;2024-03-23T01:38:45;40.98;38.67;43.92;;
73342;Laerm;61578;52.002;5.468;2024-03-23T01:39:16;40.63;38.22;43.02;;
73342;Laerm;61578;52.002;5.468;2024-03-23T01:39:47;40.68;38.40;43.44;;
73342;Laerm;61578;52.002;5.468;2024-03-23T01:40:18;40.90;38.90;43.37;;
73342;Laerm;61578;52.002;5.468;2024-03-23T01:40:49;40.96;38.75;43.25;;
73342;Laerm;61578;52.002;5.468;2024-03-23T01:41:20;40.71;38.72;43.52;;
73342;Laerm;61578;52.002;5.468;2024-03-23T01:41:50;41.02;38.69;43.67;;
73342;Laerm;61578;52.002;5.468;2024-03-23T01:42:21;41.04;38.90;44.15;;
73342;Laerm;61578;52.002;5.468;2024-03-23T01:43:00;40.83;38.47;43.83;;
73342;Laerm;61578;52.002;5.468;2024-03-23T01:43:32;40.97;38.61;53.64;;
73342;Laerm;61578;52.002;5.468;2024-03-23T01:44:06;40.92;38.83;43.66;;
73342;Laerm;61578;52.002;5.468;2024-03-23T01:44:38;40.76;38.41;43.40;;
73342;Laerm;61578;52.002;5.468;2024-03-23T01:45:09;41.00;38.64;43.83;;
73342;Laerm;61578;52.002;5.468;2024-03-23T01:45:41;40.77;38.75;43.70;;
73342;Laerm;61578;52.002;5.468;2024-03-23T01:46:12;40.74;38.71;45.81;;
73342;Laerm;61578;52.002;5.468;2024-03-23T01:46:44;40.80;38.76;43.53;;
73342;Laerm;61578;52.002;5.468;2024-03-23T01:47:15;40.87;38.87;43.46;;
73342;Laerm;61578;52.002;5.468;2024-03-23T01:47:45;40.93;38.34;43.66;;
73342;Laerm;61578;52.002;5.468;2024-03-23T01:48:16;40.67;38.45;43.32;;
73342;Laerm;61578;52.002;5.468;2024-03-23T01:48:47;40.74;38.69;43.10;;
73342;Laerm;61578;52.002;5.468;2024-03-23T01:49:18;40.74;38.61;43.13;;
73342;Laerm;61578;52.002;5.468;2024-03-23T01:49:49;40.68;37.97;43.43;;
73342;Laerm;61578;52.002;5.468;2024-03-23T01:50:20;40.80;38.43;43.27;;
73342;Laerm;61578;52.002;5.468;2024-03-23T01:50:52;40.75;38.47;43.58;;
73342;Laerm;61578;52.002;5.468;2024-03-23T01:51:23;40.99;38.68;43.64;;
73342;Laerm;61578;52.002;5.468;2024-03-23T01:51:54;40.75;38.47;43.58;;
73342;Laerm;61578;52.002;5.468;2024-03-23T01:52:27;40.66;38.64;43.38;;
73342;Laerm;61578;52.002;5.468;2024-03-23T01:52:58;40.94;38.65;43.87;;
73342;Laerm;61578;52.002;5.468;2024-03-23T01:53:29;40.80;38.64;43.07;;
73342;Laerm;61578;52.002;5.468;2024-03-23T01:54:03;40.93;38.94;43.94;;
73342;Laerm;61578;52.002;5.468;2024-03-23T01:54:35;41.04;38.56;43.59;;
73342;Laerm;61578;52.002;5.468;2024-03-23T01:55:06;40.93;38.89;43.40;;
73342;Laerm;61578;52.002;5.468;2024-03-23T01:55:37;41.04;38.84;44.46;;
73342;Laerm;61578;52.002;5.468;2024-03-23T01:56:09;41.10;38.72;43.72;;
73342;Laerm;61578;52.002;5.468;2024-03-23T01:56:40;41.00;38.76;43.42;;
73342;Laerm;61578;52.002;5.468;2024-03-23T01:57:11;40.89;38.69;43.66;;
73342;Laerm;61578;52.002;5.468;2024-03-23T01:57:42;41.05;38.91;43.61;;
73342;Laerm;61578;52.002;5.468;2024-03-23T01:58:12;40.81;38.38;43.67;;
73342;Laerm;61578;52.002;5.468;2024-03-23T01:58:43;41.04;38.89;43.65;;
73342;Laerm;61578;52.002;5.468;2024-03-23T01:59:14;41.16;38.85;43.89;;
73342;Laerm;61578;52.002;5.468;2024-03-23T01:59:45;41.03;38.43;43.37;;
73342;Laerm;61578;52.002;5.468;2024-03-23T02:00:16;40.96;38.85;43.14;;
73342;Laerm;61578;52.002;5.468;2024-03-23T02:00:47;41.18;38.74;43.62;;
73342;Laerm;61578;52.002;5.468;2024-03-23T02:01:17;40.84;38.46;43.25;;
73342;Laerm;61578;52.002;5.468;2024-03-23T02:01:48;40.97;38.75;43.43;;
73342;Laerm;61578;52.002;5.468;2024-03-23T02:02:19;41.05;38.64;43.67;;
73342;Laerm;61578;52.002;5.468;2024-03-23T02:02:50;40.74;38.59;42.99;;
73342;Laerm;61578;52.002;5.468;2024-03-23T02:03:27;40.81;38.60;43.20;;
73342;Laerm;61578;52.002;5.468;2024-03-23T02:03:59;40.88;39.00;43.66;;
73342;Laerm;61578;52.002;5.468;2024-03-23T02:04:29;40.65;38.64;43.06;;
73342;Laerm;61578;52.002;5.468;2024-03-23T02:05:00;40.92;38.86;43.46;;
73342;Laerm;61578;52.002;5.468;2024-03-23T02:05:31;40.77;38.51;43.17;;
73342;Laerm;61578;52.002;5.468;2024-03-23T02:06:02;40.93;38.63;43.91;;
73342;Laerm;61578;52.002;5.468;2024-03-23T02:06:33;40.81;38.70;43.62;;
73342;Laerm;61578;52.002;5.468;2024-03-23T02:07:06;40.88;38.80;43.27;;
73342;Laerm;61578;52.002;5.468;2024-03-23T02:07:39;40.82;38.91;43.07;;
73342;Laerm;61578;52.002;5.468;2024-03-23T02:08:10;40.81;38.77;43.50;;
73342;Laerm;61578;52.002;5.468;2024-03-23T02:08:43;40.77;38.51;43.59;;
73342;Laerm;61578;52.002;5.468;2024-03-23T02:09:14;40.94;38.87;43.93;;
73342;Laerm;61578;52.002;5.468;2024-03-23T02:09:46;40.83;38.80;43.08;;
73342;Laerm;61578;52.002;5.468;2024-03-23T02:10:17;40.63;38.56;43.05;;
73342;Laerm;61578;52.002;5.468;2024-03-23T02:10:49;40.73;38.56;43.57;;
73342;Laerm;61578;52.002;5.468;2024-03-23T02:11:21;40.46;38.24;42.72;;
73342;Laerm;61578;52.002;5.468;2024-03-23T02:11:51;40.59;38.57;43.64;;
73342;Laerm;61578;52.002;5.468;2024-03-23T02:12:22;40.60;38.68;43.15;;
73342;Laerm;61578;52.002;5.468;2024-03-23T02:12:53;40.74;38.55;43.15;;
73342;Laerm;61578;52.002;5.468;2024-03-23T02:13:24;40.77;38.57;43.53;;
73342;Laerm;61578;52.002;5.468;2024-03-23T02:13:55;40.55;38.62;43.46;;
73342;Laerm;61578;52.002;5.468;2024-03-23T02:14:26;40.83;38.63;43.91;;
73342;Laerm;61578;52.002;5.468;2024-03-23T02:14:57;40.81;38.52;42.98;;
73342;Laerm;61578;52.002;5.468;2024-03-23T02:15:27;40.69;38.24;43.03;;
73342;Laerm;61578;52.002;5.468;2024-03-23T02:15:58;40.62;38.50;44.18;;
73342;Laerm;61578;52.002;5.468;2024-03-23T02:16:29;40.59;38.21;43.61;;
73342;Laerm;61578;52.002;5.468;2024-03-23T02:16:59;40.80;38.59;43.69;;
73342;Laerm;61578;52.002;5.468;2024-03-23T02:17:33;40.56;38.42;43.37;;
73342;Laerm;61578;52.002;5.468;2024-03-23T02:18:04;40.61;38.37;43.19;;
73342;Laerm;61578;52.002;5.468;2024-03-23T02:18:36;40.78;38.31;43.26;;
73342;Laerm;61578;52.002;5.468;2024-03-23T02:19:06;40.65;37.93;43.15;;
73342;Laerm;61578;52.002;5.468;2024-03-23T02:19:38;40.60;38.27;43.13;;
73342;Laerm;61578;52.002;5.468;2024-03-23T02:20:11;40.80;38.68;44.15;;
73342;Laerm;61578;52.002;5.468;2024-03-23T02:20:42;40.59;38.35;42.99;;
73342;Laerm;61578;52.002;5.468;2024-03-23T02:21:13;40.69;38.52;43.76;;
73342;Laerm;61578;52.002;5.468;2024-03-23T02:21:43;40.52;38.46;43.35;;
73342;Laerm;61578;52.002;5.468;2024-03-23T02:22:14;40.78;38.45;43.24;;
73342;Laerm;61578;52.002;5.468;2024-03-23T02:22:46;40.74;38.44;43.46;;
73342;Laerm;61578;52.002;5.468;2024-03-23T02:23:18;40.61;38.38;43.40;;
73342;Laerm;61578;52.002;5.468;2024-03-23T02:23:48;40.69;38.13;43.19;;
73342;Laerm;61578;52.002;5.468;2024-03-23T02:24:19;40.56;38.13;43.74;;
73342;Laerm;61578;52.002;5.468;2024-03-23T02:24:50;40.65;38.33;43.33;;
73342;Laerm;61578;52.002;5.468;2024-03-23T02:25:20;40.73;38.21;43.28;;
73342;Laerm;61578;52.002;5.468;2024-03-23T02:25:51;40.52;38.51;42.72;;
73342;Laerm;61578;52.002;5.468;2024-03-23T02:26:23;40.61;38.28;43.31;;
73342;Laerm;61578;52.002;5.468;2024-03-23T02:26:54;40.61;38.17;43.05;;
73342;Laerm;61578;52.002;5.468;2024-03-23T02:27:25;40.53;38.24;43.57;;
73342;Laerm;61578;52.002;5.468;2024-03-23T02:27:55;40.43;38.22;42.46;;
73342;Laerm;61578;52.002;5.468;2024-03-23T02:28:26;40.48;38.51;42.87;;
73342;Laerm;61578;52.002;5.468;2024-03-23T02:28:57;40.55;38.19;42.71;;
73342;Laerm;61578;52.002;5.468;2024-03-23T02:29:28;40.37;38.33;43.13;;
73342;Laerm;61578;52.002;5.468;2024-03-23T02:29:58;40.40;38.16;42.63;;
73342;Laerm;61578;52.002;5.468;2024-03-23T02:30:29;40.45;38.54;42.97;;
73342;Laerm;61578;52.002;5.468;2024-03-23T02:31:00;41.62;38.76;47.65;;
73342;Laerm;61578;52.002;5.468;2024-03-23T02:31:31;42.09;39.18;46.65;;
73342;Laerm;61578;52.002;5.468;2024-03-23T02:32:02;40.96;38.23;45.20;;
73342;Laerm;61578;52.002;5.468;2024-03-23T02:32:33;40.50;38.53;42.71;;
73342;Laerm;61578;52.002;5.468;2024-03-23T02:33:04;40.59;38.43;44.58;;
73342;Laerm;61578;52.002;5.468;2024-03-23T02:33:35;40.32;38.16;42.81;;
73342;Laerm;61578;52.002;5.468;2024-03-23T02:34:08;40.41;38.34;42.77;;
73342;Laerm;61578;52.002;5.468;2024-03-23T02:34:39;40.39;38.31;42.42;;
73342;Laerm;61578;52.002;5.468;2024-03-23T02:35:10;40.30;38.20;49.85;;
73342;Laerm;61578;52.002;5.468;2024-03-23T02:35:40;40.35;38.17;42.75;;
73342;Laerm;61578;52.002;5.468;2024-03-23T02:36:11;40.39;38.27;43.04;;
73342;Laerm;61578;52.002;5.468;2024-03-23T02:36:42;40.37;38.40;42.83;;
73342;Laerm;61578;52.002;5.468;2024-03-23T02:37:13;40.44;38.11;42.92;;
73342;Laerm;61578;52.002;5.468;2024-03-23T02:37:43;40.56;38.51;43.29;;
73342;Laerm;61578;52.002;5.468;2024-03-23T02:38:14;40.30;38.29;42.61;;
73342;Laerm;61578;52.002;5.468;2024-03-23T02:38:45;40.43;38.39;43.17;;
73342;Laerm;61578;52.002;5.468;2024-03-23T02:39:15;40.36;38.26;42.74;;
73342;Laerm;61578;52.002;5.468;2024-03-23T02:39:46;40.52;38.45;42.95;;
73342;Laerm;61578;52.002;5.468;2024-03-23T02:40:18;40.53;38.43;42.91;;
73342;Laerm;61578;52.002;5.468;2024-03-23T02:40:49;40.43;38.09;42.65;;
73342;Laerm;61578;52.002;5.468;2024-03-23T02:41:20;40.39;38.11;42.74;;
73342;Laerm;61578;52.002;5.468;2024-03-23T02:41:54;40.43;38.45;42.88;;
73342;Laerm;61578;52.002;5.468;2024-03-23T02:42:24;40.30;37.93;42.65;;
73342;Laerm;61578;52.002;5.468;2024-03-23T02:42:55;40.36;38.16;42.75;;
73342;Laerm;61578;52.002;5.468;2024-03-23T02:43:26;40.33;38.02;42.35;;
73342;Laerm;61578;52.002;5.468;2024-03-23T02:43:56;40.31;38.25;43.27;;
73342;Laerm;61578;52.002;5.468;2024-03-23T02:44:27;40.40;38.17;42.89;;
73342;Laerm;61578;52.002;5.468;2024-03-23T02:44:58;40.31;37.87;42.86;;
73342;Laerm;61578;52.002;5.468;2024-03-23T02:45:30;40.59;38.35;42.97;;
73342;Laerm;61578;52.002;5.468;2024-03-23T02:46:01;40.48;38.24;43.25;;
73342;Laerm;61578;52.002;5.468;2024-03-23T02:46:32;40.83;38.81;43.02;;
73342;Laerm;61578;52.002;5.468;2024-03-23T02:47:03;40.61;38.58;42.60;;
73342;Laerm;61578;52.002;5.468;2024-03-23T02:47:34;40.56;38.92;42.76;;
73342;Laerm;61578;52.002;5.468;2024-03-23T02:48:05;40.64;38.48;42.88;;
73342;Laerm;61578;52.002;5.468;2024-03-23T02:48:36;40.40;38.46;42.98;;
73342;Laerm;61578;52.002;5.468;2024-03-23T02:49:07;40.48;38.49;43.02;;
73342;Laerm;61578;52.002;5.468;2024-03-23T02:49:37;40.67;38.33;43.47;;
73342;Laerm;61578;52.002;5.468;2024-03-23T02:50:09;40.60;38.63;42.73;;
73342;Laerm;61578;52.002;5.468;2024-03-23T02:50:39;40.60;38.88;42.82;;
73342;Laerm;61578;52.002;5.468;2024-03-23T02:51:10;40.59;38.52;43.12;;
73342;Laerm;61578;52.002;5.468;2024-03-23T02:51:41;40.50;38.43;42.83;;
73342;Laerm;61578;52.002;5.468;2024-03-23T02:52:12;40.34;37.69;46.95;;
73342;Laerm;61578;52.002;5.468;2024-03-23T02:52:42;40.42;38.24;42.77;;
73342;Laerm;61578;52.002;5.468;2024-03-23T02:53:13;40.48;38.37;42.66;;
73342;Laerm;61578;52.002;5.468;2024-03-23T02:53:44;40.66;38.33;43.27;;
73342;Laerm;61578;52.002;5.468;2024-03-23T02:54:14;40.66;38.66;43.22;;
73342;Laerm;61578;52.002;5.468;2024-03-23T02:54:45;40.45;38.30;42.55;;
73342;Laerm;61578;52.002;5.468;2024-03-23T02:55:16;41.59;38.26;46.43;;
73342;Laerm;61578;52.002;5.468;2024-03-23T02:55:47;42.15;39.78;46.62;;
73342;Laerm;61578;52.002;5.468;2024-03-23T02:56:17;41.40;39.16;44.41;;
73342;Laerm;61578;52.002;5.468;2024-03-23T02:56:48;40.72;38.74;43.21;;
73342;Laerm;61578;52.002;5.468;2024-03-23T02:57:19;40.74;38.96;42.93;;
73342;Laerm;61578;52.002;5.468;2024-03-23T02:57:50;40.74;39.06;43.75;;
73342;Laerm;61578;52.002;5.468;2024-03-23T02:58:20;40.70;38.77;42.61;;
73342;Laerm;61578;52.002;5.468;2024-03-23T02:58:51;40.69;38.50;42.70;;
73342;Laerm;61578;52.002;5.468;2024-03-23T02:59:22;40.83;38.78;42.70;;
73342;Laerm;61578;52.002;5.468;2024-03-23T02:59:53;40.73;38.68;42.93;;
73342;Laerm;61578;52.002;5.468;2024-03-23T03:00:24;40.70;38.84;42.81;;
73342;Laerm;61578;52.002;5.468;2024-03-23T03:00:55;40.76;39.20;42.89;;
73342;Laerm;61578;52.002;5.468;2024-03-23T03:01:25;40.77;39.07;42.99;;
73342;Laerm;61578;52.002;5.468;2024-03-23T03:01:56;40.79;39.05;42.69;;
73342;Laerm;61578;52.002;5.468;2024-03-23T03:02:27;40.75;38.96;42.72;;
73342;Laerm;61578;52.002;5.468;2024-03-23T03:02:57;40.85;38.78;42.94;;
73342;Laerm;61578;52.002;5.468;2024-03-23T03:03:28;40.49;38.30;42.56;;
73342;Laerm;61578;52.002;5.468;2024-03-23T03:04:00;40.36;38.23;42.55;;
73342;Laerm;61578;52.002;5.468;2024-03-23T03:04:31;40.42;38.29;42.36;;
73342;Laerm;61578;52.002;5.468;2024-03-23T03:05:02;40.40;38.30;43.11;;
73342;Laerm;61578;52.002;5.468;2024-03-23T03:05:33;40.62;38.56;42.99;;
73342;Laerm;61578;52.002;5.468;2024-03-23T03:06:04;40.45;38.48;42.64;;
73342;Laerm;61578;52.002;5.468;2024-03-23T03:06:34;40.90;38.86;42.82;;
73342;Laerm;61578;52.002;5.468;2024-03-23T03:07:05;40.81;39.05;43.35;;
73342;Laerm;61578;52.002;5.468;2024-03-23T03:07:36;40.83;38.83;43.47;;
73342;Laerm;61578;52.002;5.468;2024-03-23T03:08:09;41.21;38.43;43.87;;
73342;Laerm;61578;52.002;5.468;2024-03-23T03:08:40;40.65;38.84;42.62;;
73342;Laerm;61578;52.002;5.468;2024-03-23T03:09:11;40.69;38.37;42.75;;
73342;Laerm;61578;52.002;5.468;2024-03-23T03:09:41;40.57;38.51;42.88;;
73342;Laerm;61578;52.002;5.468;2024-03-23T03:10:12;40.71;38.81;42.82;;
73342;Laerm;61578;52.002;5.468;2024-03-23T03:10:43;40.67;38.84;42.81;;
73342;Laerm;61578;52.002;5.468;2024-03-23T03:11:14;40.90;38.98;43.05;;
73342;Laerm;61578;52.002;5.468;2024-03-23T03:11:44;40.65;38.85;43.09;;
73342;Laerm;61578;52.002;5.468;2024-03-23T03:12:15;40.51;38.24;42.89;;
73342;Laerm;61578;52.002;5.468;2024-03-23T03:12:46;40.54;38.43;43.40;;
73342;Laerm;61578;52.002;5.468;2024-03-23T03:13:16;40.44;38.29;43.09;;
73342;Laerm;61578;52.002;5.468;2024-03-23T03:13:48;40.30;38.06;42.67;;
73342;Laerm;61578;52.002;5.468;2024-03-23T03:14:18;40.56;38.35;43.04;;
73342;Laerm;61578;52.002;5.468;2024-03-23T03:14:50;40.74;38.95;43.05;;
73342;Laerm;61578;52.002;5.468;2024-03-23T03:15:21;40.85;38.80;42.87;;
73342;Laerm;61578;52.002;5.468;2024-03-23T03:15:51;40.85;38.58;42.91;;
73342;Laerm;61578;52.002;5.468;2024-03-23T03:16:23;40.98;38.90;43.87;;
73342;Laerm;61578;52.002;5.468;2024-03-23T03:16:54;40.51;38.40;42.32;;
73342;Laerm;61578;52.002;5.468;2024-03-23T03:17:25;40.42;38.65;42.47;;
73342;Laerm;61578;52.002;5.468;2024-03-23T03:17:56;40.82;38.65;43.59;;
73342;Laerm;61578;52.002;5.468;2024-03-23T03:18:26;40.70;38.66;43.57;;
73342;Laerm;61578;52.002;5.468;2024-03-23T03:18:57;40.42;38.34;43.22;;
73342;Laerm;61578;52.002;5.468;2024-03-23T03:19:28;40.39;38.59;42.78;;
73342;Laerm;61578;52.002;5.468;2024-03-23T03:19:59;40.62;38.55;43.04;;
73342;Laerm;61578;52.002;5.468;2024-03-23T03:20:30;40.61;38.85;43.22;;
73342;Laerm;61578;52.002;5.468;2024-03-23T03:21:02;40.68;38.35;46.09;;
73342;Laerm;61578;52.002;5.468;2024-03-23T03:21:33;40.47;38.58;42.64;;
73342;Laerm;61578;52.002;5.468;2024-03-23T03:22:04;40.64;38.55;43.53;;
73342;Laerm;61578;52.002;5.468;2024-03-23T03:22:35;40.68;38.68;43.45;;
73342;Laerm;61578;52.002;5.468;2024-03-23T03:23:06;40.40;38.52;43.05;;
73342;Laerm;61578;52.002;5.468;2024-03-23T03:23:38;40.48;38.19;42.85;;
73342;Laerm;61578;52.002;5.468;2024-03-23T03:24:09;40.93;38.82;44.82;;
73342;Laerm;61578;52.002;5.468;2024-03-23T03:24:40;40.42;37.96;42.73;;
73342;Laerm;61578;52.002;5.468;2024-03-23T03:25:10;40.49;38.34;42.38;;
73342;Laerm;61578;52.002;5.468;2024-03-23T03:25:41;40.94;38.98;43.26;;
73342;Laerm;61578;52.002;5.468;2024-03-23T03:26:12;40.70;38.81;43.00;;
73342;Laerm;61578;52.002;5.468;2024-03-23T03:26:43;40.55;38.26;43.04;;
73342;Laerm;61578;52.002;5.468;2024-03-23T03:27:13;40.57;38.53;43.27;;
73342;Laerm;61578;52.002;5.468;2024-03-23T03:27:45;40.46;38.56;43.10;;
73342;Laerm;61578;52.002;5.468;2024-03-23T03:28:15;40.55;38.47;43.49;;
73342;Laerm;61578;52.002;5.468;2024-03-23T03:28:46;40.39;38.57;42.82;;
73342;Laerm;61578;52.002;5.468;2024-03-23T03:29:19;40.23;38.05;42.86;;
73342;Laerm;61578;52.002;5.468;2024-03-23T03:29:49;40.35;38.08;43.25;;
73342;Laerm;61578;52.002;5.468;2024-03-23T03:30:20;40.51;38.20;42.81;;
73342;Laerm;61578;52.002;5.468;2024-03-23T03:30:51;40.58;38.39;43.30;;
73342;Laerm;61578;52.002;5.468;2024-03-23T03:31:22;40.31;38.27;43.04;;
73342;Laerm;61578;52.002;5.468;2024-03-23T03:31:53;40.38;38.45;43.68;;
73342;Laerm;61578;52.002;5.468;2024-03-23T03:32:24;40.69;38.62;43.95;;
73342;Laerm;61578;52.002;5.468;2024-03-23T03:32:54;40.49;37.64;43.62;;
73342;Laerm;61578;52.002;5.468;2024-03-23T03:33:27;40.29;38.31;42.33;;
73342;Laerm;61578;52.002;5.468;2024-03-23T03:33:58;40.49;37.76;43.00;;
73342;Laerm;61578;52.002;5.468;2024-03-23T03:34:29;40.45;38.40;43.53;;
73342;Laerm;61578;52.002;5.468;2024-03-23T03:34:59;40.43;38.52;42.63;;
73342;Laerm;61578;52.002;5.468;2024-03-23T03:35:30;40.19;37.55;42.47;;
73342;Laerm;61578;52.002;5.468;2024-03-23T03:36:01;40.37;38.44;42.91;;
73342;Laerm;61578;52.002;5.468;2024-03-23T03:36:31;40.42;37.81;43.31;;
73342;Laerm;61578;52.002;5.468;2024-03-23T03:37:02;40.43;38.18;42.99;;
73342;Laerm;61578;52.002;5.468;2024-03-23T03:37:33;40.32;38.43;42.58;;
73342;Laerm;61578;52.002;5.468;2024-03-23T03:38:04;40.21;37.98;42.24;;
73342;Laerm;61578;52.002;5.468;2024-03-23T03:38:35;40.45;38.52;43.03;;
73342;Laerm;61578;52.002;5.468;2024-03-23T03:39:06;40.43;38.40;43.35;;
73342;Laerm;61578;52.002;5.468;2024-03-23T03:39:37;40.32;38.17;43.18;;
73342;Laerm;61578;52.002;5.468;2024-03-23T03:40:08;40.27;37.94;43.27;;
73342;Laerm;61578;52.002;5.468;2024-03-23T03:40:41;40.30;38.03;42.55;;
73342;Laerm;61578;52.002;5.468;2024-03-23T03:41:12;40.26;37.91;43.20;;
73342;Laerm;61578;52.002;5.468;2024-03-23T03:41:43;40.86;38.33;45.89;;
73342;Laerm;61578;52.002;5.468;2024-03-23T03:42:14;41.47;38.70;45.90;;
73342;Laerm;61578;52.002;5.468;2024-03-23T03:42:45;40.42;37.65;42.92;;
73342;Laerm;61578;52.002;5.468;2024-03-23T03:43:16;40.25;38.15;43.37;;
73342;Laerm;61578;52.002;5.468;2024-03-23T03:43:47;40.09;38.31;42.79;;
73342;Laerm;61578;52.002;5.468;2024-03-23T03:44:17;40.22;37.99;42.44;;
73342;Laerm;61578;52.002;5.468;2024-03-23T03:44:48;40.37;38.13;42.86;;
73342;Laerm;61578;52.002;5.468;2024-03-23T03:45:19;40.15;38.02;43.12;;
73342;Laerm;61578;52.002;5.468;2024-03-23T03:45:58;40.17;38.08;42.68;;
73342;Laerm;61578;52.002;5.468;2024-03-23T03:46:29;40.12;38.13;42.34;;
73342;Laerm;61578;52.002;5.468;2024-03-23T03:47:00;40.54;38.46;43.18;;
73342;Laerm;61578;52.002;5.468;2024-03-23T03:47:31;40.62;38.19;42.95;;